Time;durP1;ratioP1;P1;durP2;ratioP2;P2;SDS_P1;SDS_P2;PMS_P1;PMS_P2;Temp;Humidity;BMP_temperature;BMP_pressure;BME280_temperature;BME280_humidity;BME280_pressure;Samples;Min_cycle;Max_cycle;Signal;HPM_P1;HPM_P2
2021/12/26 00:00:11;;;;;;;32.60;18.88;;;22.60;99.60;;;;;;4174061;28;20052;-75
2021/12/26 00:02:15;;;;;;;28.00;20.00;;;22.70;99.40;;;;;;4177615;28;20056;-75
2021/12/26 00:04:20;;;;;;;27.67;19.92;;;22.50;99.80;;;;;;4172549;28;20136;-74
2021/12/26 00:06:26;;;;;;;34.92;24.30;;;22.50;99.80;;;;;;4177435;28;20098;-75
2021/12/26 00:08:31;;;;;;;33.03;22.52;;;22.50;99.80;;;;;;4175413;28;20041;-74
2021/12/26 00:10:35;;;;;;;29.25;20.90;;;22.60;99.70;;;;;;4176411;28;20051;-74
2021/12/26 00:12:40;;;;;;;36.45;21.48;;;22.50;99.80;;;;;;4176818;28;20073;-74
2021/12/26 00:14:44;;;;;;;29.30;20.23;;;22.50;99.80;;;;;;4175312;28;20575;-74
2021/12/26 00:16:50;;;;;;;32.50;19.55;;;22.50;99.70;;;;;;4181166;28;20132;-74
2021/12/26 00:18:54;;;;;;;31.55;19.50;;;22.60;99.60;;;;;;4179014;28;20159;-74
2021/12/26 00:20:59;;;;;;;28.88;19.48;;;22.60;99.50;;;;;;4180056;28;20080;-75
2021/12/26 00:23:03;;;;;;;29.50;19.98;;;22.60;99.30;;;;;;4177634;28;20062;-74
2021/12/26 00:25:08;;;;;;;35.58;19.63;;;22.60;99.40;;;;;;4180175;28;20044;-74
2021/12/26 00:27:14;;;;;;;33.13;20.98;;;22.70;99.40;;;;;;4179715;28;20037;-75
2021/12/26 00:29:19;;;;;;;30.88;20.25;;;22.80;99.20;;;;;;4179873;28;20095;-74
2021/12/26 00:31:24;;;;;;;26.77;19.42;;;22.90;99.00;;;;;;4176125;28;20637;-73
2021/12/26 00:33:28;;;;;;;31.25;19.17;;;22.90;98.80;;;;;;4179267;28;20037;-74
2021/12/26 00:35:34;;;;;;;30.73;19.38;;;22.90;98.80;;;;;;4176581;28;20057;-73
2021/12/26 00:37:38;;;;;;;30.10;19.48;;;22.90;98.60;;;;;;4178130;28;20040;-74
2021/12/26 00:39:42;;;;;;;123.38;25.73;;;23.00;98.50;;;;;;4177096;28;20051;-76
2021/12/26 00:41:47;;;;;;;45.83;20.88;;;23.00;98.70;;;;;;4179293;28;20045;-74
2021/12/26 00:43:54;;;;;;;31.33;19.58;;;23.00;98.60;;;;;;4179169;28;20045;-75
2021/12/26 00:45:58;;;;;;;33.45;19.10;;;22.90;98.80;;;;;;4179145;28;20135;-75
2021/12/26 00:48:03;;;;;;;32.10;18.30;;;22.90;98.90;;;;;;4176882;28;20076;-75
2021/12/26 00:50:09;;;;;;;27.90;16.88;;;22.90;98.80;;;;;;4179295;28;20045;-75
2021/12/26 00:52:14;;;;;;;22.95;17.30;;;23.00;98.60;;;;;;4178990;28;20098;-75
2021/12/26 00:54:20;;;;;;;22.80;15.90;;;23.10;98.40;;;;;;4178047;28;20057;-73
2021/12/26 00:56:26;;;;;;;27.63;14.88;;;23.20;98.30;;;;;;4177349;28;20495;-74
2021/12/26 00:58:32;;;;;;;20.60;14.60;;;23.10;98.30;;;;;;4176306;28;20055;-72
2021/12/26 01:00:39;;;;;;;24.52;13.48;;;23.00;98.40;;;;;;4174435;28;20045;-73
2021/12/26 01:02:45;;;;;;;23.42;13.07;;;23.00;98.50;;;;;;4179114;28;20125;-73
2021/12/26 01:04:50;;;;;;;21.80;12.65;;;23.00;98.30;;;;;;4176286;28;20098;-73
2021/12/26 01:06:54;;;;;;;20.42;12.80;;;23.10;98.20;;;;;;4172752;28;20063;-73
2021/12/26 01:08:58;;;;;;;19.35;13.02;;;23.10;97.60;;;;;;4176813;28;20067;-73
2021/12/26 01:11:17;;;;;;;19.88;12.50;;;23.10;97.50;;;;;;4177806;28;20531;-72
2021/12/26 01:13:24;;;;;;;19.00;12.13;;;23.10;97.60;;;;;;4177571;28;20045;-73
2021/12/26 01:15:35;;;;;;;21.48;12.88;;;23.00;97.50;;;;;;4202748;28;20597;-73
2021/12/26 01:17:58;;;;;;;20.85;13.50;;;23.10;97.30;;;;;;4177555;28;20041;-72
2021/12/26 01:20:10;;;;;;;20.63;11.85;;;23.10;97.30;;;;;;4186740;28;20487;-73
2021/12/26 01:22:15;;;;;;;19.95;11.55;;;23.10;97.30;;;;;;4177486;28;20093;-73
2021/12/26 01:24:26;;;;;;;19.58;10.77;;;23.10;97.30;;;;;;4178221;28;20059;-72
2021/12/26 01:26:31;;;;;;;14.38;9.90;;;23.20;97.10;;;;;;4178976;28;20397;-72
2021/12/26 01:28:35;;;;;;;11.27;9.32;;;23.20;97.00;;;;;;4177399;28;20408;-72
2021/12/26 01:30:42;;;;;;;15.90;10.48;;;23.20;96.70;;;;;;4175378;28;20041;-72
2021/12/26 01:32:46;;;;;;;16.60;9.18;;;23.30;96.70;;;;;;4177304;28;20036;-72
2021/12/26 01:35:03;;;;;;;15.98;9.25;;;23.30;96.60;;;;;;4176768;28;20041;-72
2021/12/26 01:37:19;;;;;;;13.95;8.90;;;23.40;96.30;;;;;;4178714;28;20049;-72
2021/12/26 01:39:43;;;;;;;11.55;8.70;;;23.40;96.20;;;;;;4176220;28;20052;-72
2021/12/26 01:42:09;;;;;;;10.95;7.65;;;23.30;96.40;;;;;;4177039;28;20041;-72
2021/12/26 01:44:34;;;;;;;13.45;8.45;;;23.40;96.10;;;;;;4178212;28;20047;-72
2021/12/26 01:46:46;;;;;;;20.35;8.38;;;23.50;96.20;;;;;;4203329;28;20094;-71
2021/12/26 01:49:11;;;;;;;12.45;8.50;;;23.70;95.90;;;;;;4201774;28;20135;-72
2021/12/26 01:51:16;;;;;;;11.48;7.57;;;23.80;95.70;;;;;;4176003;28;20041;-72
2021/12/26 01:53:23;;;;;;;9.98;7.10;;;23.90;95.50;;;;;;4174521;28;20132;-72
2021/12/26 01:57:45;;;;;;;10.18;6.68;;;24.10;95.00;;;;;;4175504;28;20127;-72
2021/12/26 01:59:50;;;;;;;9.95;6.75;;;24.10;94.50;;;;;;4202369;28;20072;-72
2021/12/26 02:02:17;;;;;;;12.40;7.47;;;24.20;94.80;;;;;;4178546;28;20037;-72
2021/12/26 02:04:23;;;;;;;11.68;6.78;;;24.20;94.40;;;;;;4174978;28;20531;-72
2021/12/26 02:06:28;;;;;;;11.25;6.50;;;24.20;94.40;;;;;;4177569;28;20424;-72
2021/12/26 02:08:33;;;;;;;10.98;6.55;;;24.30;94.30;;;;;;4177417;28;20055;-72
2021/12/26 02:10:38;;;;;;;9.73;6.30;;;24.40;94.30;;;;;;4185832;28;20044;-72
2021/12/26 02:12:43;;;;;;;8.75;5.30;;;24.40;94.30;;;;;;4202136;28;20156;-73
2021/12/26 02:14:48;;;;;;;7.10;5.22;;;24.40;93.70;;;;;;4176954;28;20032;-72
2021/12/26 02:17:16;;;;;;;7.10;5.22;;;24.50;93.80;;;;;;4177376;28;20044;-72
2021/12/26 02:19:21;;;;;;;13.38;6.75;;;24.50;93.50;;;;;;4201892;28;20036;-71
2021/12/26 02:21:47;;;;;;;9.82;5.38;;;24.50;93.40;;;;;;4193725;28;20041;-71
2021/12/26 02:24:03;;;;;;;9.45;5.07;;;24.60;93.20;;;;;;4170211;28;20557;-72
2021/12/26 02:28:19;;;;;;;8.70;4.22;;;24.60;92.90;;;;;;4178883;28;20041;-75
2021/12/26 02:30:24;;;;;;;6.28;4.25;;;24.60;92.60;;;;;;4204558;28;20477;-72
2021/12/26 02:32:31;;;;;;;7.78;4.88;;;24.60;92.60;;;;;;4180354;28;20049;-72
2021/12/26 02:34:36;;;;;;;8.55;4.53;;;24.60;92.60;;;;;;4181622;28;20221;-73
2021/12/26 02:36:41;;;;;;;7.45;4.10;;;24.70;92.50;;;;;;4177420;28;20050;-72
2021/12/26 02:38:45;;;;;;;6.90;4.22;;;24.80;92.40;;;;;;4180029;28;20272;-72
2021/12/26 02:40:51;;;;;;;5.10;3.28;;;24.80;92.30;;;;;;4181322;28;20136;-70
2021/12/26 02:42:55;;;;;;;5.43;3.35;;;24.90;92.20;;;;;;4204992;28;20036;-72
2021/12/26 02:45:00;;;;;;;7.85;4.13;;;24.90;91.90;;;;;;4204831;28;20045;-71
2021/12/26 02:47:05;;;;;;;11.20;3.95;;;24.90;91.80;;;;;;4177473;28;20147;-72
2021/12/26 02:49:09;;;;;;;4.90;3.42;;;24.90;91.80;;;;;;4204743;28;20140;-72
2021/12/26 02:51:16;;;;;;;4.70;3.42;;;25.00;91.60;;;;;;4204797;28;20048;-71
2021/12/26 02:53:20;;;;;;;8.57;3.60;;;25.00;91.70;;;;;;4177616;28;20057;-72
2021/12/26 02:55:25;;;;;;;10.52;3.58;;;25.10;91.70;;;;;;4163228;28;20049;-72
2021/12/26 02:57:29;;;;;;;7.15;3.33;;;25.20;91.50;;;;;;4181154;28;20045;-69
2021/12/26 02:59:34;;;;;;;6.00;3.88;;;25.20;91.30;;;;;;4179818;28;20061;-71
2021/12/26 03:01:38;;;;;;;12.48;3.95;;;25.20;91.20;;;;;;4177963;28;20096;-71
2021/12/26 03:03:43;;;;;;;7.53;3.50;;;25.20;91.30;;;;;;4181014;28;20514;-71
2021/12/26 03:05:54;;;;;;;5.60;3.67;;;25.30;91.40;;;;;;4204605;28;20048;-72
2021/12/26 03:07:59;;;;;;;5.20;4.28;;;25.30;91.30;;;;;;4165140;28;20040;-71
2021/12/26 03:10:05;;;;;;;8.45;3.95;;;25.40;90.90;;;;;;4164918;28;20084;-70
2021/12/26 03:12:10;;;;;;;7.45;4.15;;;25.40;91.10;;;;;;4177072;28;20051;-71
2021/12/26 03:14:14;;;;;;;8.18;3.70;;;25.50;91.00;;;;;;4174622;28;20045;-70
2021/12/26 03:16:19;;;;;;;4.88;3.40;;;25.50;90.90;;;;;;4175864;28;20404;-71
2021/12/26 03:18:25;;;;;;;7.50;3.65;;;25.60;91.10;;;;;;4204463;28;20171;-70
2021/12/26 03:20:31;;;;;;;4.68;3.35;;;25.60;91.00;;;;;;4176512;28;20135;-70
2021/12/26 03:22:37;;;;;;;9.23;3.08;;;25.70;90.70;;;;;;4174645;28;20526;-70
2021/12/26 03:24:43;;;;;;;5.32;3.08;;;25.70;90.50;;;;;;4205526;28;20444;-71
2021/12/26 03:26:47;;;;;;;11.05;3.38;;;25.70;90.50;;;;;;4176582;28;20056;-70
2021/12/26 03:28:57;;;;;;;7.15;2.92;;;25.80;90.30;;;;;;4176947;28;20546;-70
2021/12/26 03:31:01;;;;;;;6.50;2.90;;;25.80;90.30;;;;;;4198547;28;20600;-70
2021/12/26 03:33:09;;;;;;;4.15;2.92;;;25.80;90.20;;;;;;4175904;28;20091;-71
2021/12/26 03:35:14;;;;;;;9.50;2.75;;;25.90;90.50;;;;;;4175035;28;20618;-71
2021/12/26 03:37:18;;;;;;;8.23;2.95;;;25.90;90.40;;;;;;4197112;28;20557;-71
2021/12/26 03:39:23;;;;;;;7.95;2.70;;;26.00;90.30;;;;;;4173828;28;20447;-70
2021/12/26 03:41:28;;;;;;;8.85;3.17;;;26.00;90.20;;;;;;4176431;28;20041;-70
2021/12/26 03:43:34;;;;;;;8.90;3.65;;;26.00;90.10;;;;;;4174602;28;20133;-71
2021/12/26 03:45:42;;;;;;;8.30;3.65;;;26.00;90.30;;;;;;4177600;28;20680;-71
2021/12/26 03:47:50;;;;;;;19.30;4.93;;;26.00;90.40;;;;;;4176495;28;20129;-71
2021/12/26 03:49:54;;;;;;;11.27;5.88;;;26.10;90.50;;;;;;4198072;28;20073;-72
2021/12/26 03:51:58;;;;;;;8.57;5.43;;;26.10;90.10;;;;;;4176173;28;20439;-72
2021/12/26 03:54:05;;;;;;;8.95;4.78;;;26.10;90.10;;;;;;4207640;28;20066;-72
2021/12/26 03:56:10;;;;;;;10.50;6.50;;;26.20;90.30;;;;;;4171685;28;20136;-72
2021/12/26 03:58:19;;;;;;;10.35;8.02;;;26.20;90.40;;;;;;4205639;28;20083;-72
2021/12/26 04:00:25;;;;;;;10.70;7.97;;;26.30;90.40;;;;;;4174741;28;20094;-71
2021/12/26 04:02:32;;;;;;;14.85;8.25;;;26.40;90.20;;;;;;4199032;28;20048;-71
2021/12/26 04:04:36;;;;;;;9.95;6.20;;;26.40;90.10;;;;;;4174565;28;20037;-71
2021/12/26 04:06:41;;;;;;;6.13;4.68;;;26.40;90.10;;;;;;4171259;28;20140;-70
2021/12/26 04:08:46;;;;;;;7.70;4.95;;;26.50;90.00;;;;;;4173325;28;20467;-71
2021/12/26 04:10:51;;;;;;;6.47;4.07;;;26.50;89.80;;;;;;4172427;28;20389;-71
2021/12/26 04:12:55;;;;;;;6.93;4.93;;;26.60;89.30;;;;;;4177126;28;20071;-71
2021/12/26 04:15:07;;;;;;;7.75;3.88;;;26.60;89.00;;;;;;4174720;28;20384;-71
2021/12/26 04:17:11;;;;;;;5.88;3.40;;;26.60;89.20;;;;;;4176900;28;20037;-71
2021/12/26 04:19:16;;;;;;;5.03;3.42;;;26.80;88.90;;;;;;4171393;28;20053;-71
2021/12/26 04:21:20;;;;;;;7.07;4.53;;;26.80;88.70;;;;;;4198775;28;20510;-72
2021/12/26 04:23:31;;;;;;;8.13;4.82;;;26.90;87.80;;;;;;4201397;28;20122;-71
2021/12/26 04:25:36;;;;;;;7.57;3.80;;;26.90;88.00;;;;;;4175723;28;20053;-71
2021/12/26 04:27:41;;;;;;;4.03;3.40;;;26.90;87.70;;;;;;4176673;28;20083;-72
2021/12/26 04:29:45;;;;;;;4.32;3.00;;;26.90;88.50;;;;;;4174531;28;20076;-70
2021/12/26 04:31:49;;;;;;;5.20;3.60;;;27.00;87.70;;;;;;4202972;28;20051;-71
2021/12/26 04:33:55;;;;;;;7.15;3.55;;;27.00;87.70;;;;;;4172172;28;20045;-71
2021/12/26 04:35:59;;;;;;;4.45;3.28;;;27.10;88.10;;;;;;4174718;28;20559;-71
2021/12/26 04:38:04;;;;;;;5.35;2.97;;;27.30;87.50;;;;;;4176330;28;20045;-71
2021/12/26 04:40:09;;;;;;;5.05;2.40;;;27.20;86.40;;;;;;4197006;28;20115;-70
2021/12/26 04:42:34;;;;;;;6.60;3.42;;;27.30;86.10;;;;;;4172730;28;20556;-72
2021/12/26 04:44:58;;;;;;;11.57;3.22;;;27.30;86.40;;;;;;4175910;28;20040;-71
2021/12/26 04:47:22;;;;;;;4.45;3.10;;;27.30;85.80;;;;;;4176332;28;20044;-71
2021/12/26 04:49:27;;;;;;;10.32;3.40;;;27.30;86.00;;;;;;4173849;28;20053;-71
2021/12/26 04:51:31;;;;;;;3.63;2.83;;;27.30;86.30;;;;;;4206552;28;20042;-71
2021/12/26 04:53:39;;;;;;;5.28;2.63;;;27.40;85.80;;;;;;4206719;28;20070;-71
2021/12/26 04:55:43;;;;;;;11.98;3.40;;;27.40;85.50;;;;;;4176061;28;20040;-71
2021/12/26 04:57:47;;;;;;;5.35;3.00;;;27.40;85.90;;;;;;4175741;28;20053;-71
2021/12/26 04:59:52;;;;;;;9.25;3.30;;;27.50;86.00;;;;;;4207224;28;20523;-71
2021/12/26 05:01:57;;;;;;;5.00;3.60;;;27.60;85.60;;;;;;4202979;28;20414;-71
2021/12/26 05:04:02;;;;;;;6.25;3.22;;;27.60;84.80;;;;;;4176176;28;20049;-71
2021/12/26 05:06:06;;;;;;;8.38;3.75;;;27.70;85.40;;;;;;4169940;28;20057;-71
2021/12/26 05:08:12;;;;;;;4.15;3.10;;;27.80;84.80;;;;;;4173217;28;20036;-71
2021/12/26 05:10:18;;;;;;;4.88;3.13;;;27.90;84.80;;;;;;4163512;28;20310;-70
2021/12/26 05:12:24;;;;;;;5.05;3.30;;;27.80;84.70;;;;;;4164796;28;20450;-70
2021/12/26 05:14:29;;;;;;;4.32;3.72;;;27.90;85.00;;;;;;4162589;28;20448;-71
2021/12/26 05:16:33;;;;;;;5.43;3.03;;;27.90;84.20;;;;;;4169413;28;20507;-71
2021/12/26 05:18:40;;;;;;;6.57;3.20;;;27.90;83.80;;;;;;4179685;28;20052;-71
2021/12/26 05:20:45;;;;;;;8.25;3.60;;;27.90;83.90;;;;;;4164493;28;20061;-71
2021/12/26 05:22:50;;;;;;;6.28;3.40;;;27.90;83.90;;;;;;4158085;28;20535;-70
2021/12/26 05:24:55;;;;;;;5.07;3.17;;;28.00;84.60;;;;;;4171528;28;20037;-71
2021/12/26 05:27:02;;;;;;;4.05;3.00;;;28.10;85.00;;;;;;4197797;28;20338;-72
2021/12/26 05:29:07;;;;;;;4.43;2.92;;;28.10;85.20;;;;;;4169937;28;20625;-71
2021/12/26 05:31:13;;;;;;;4.65;2.97;;;28.20;85.20;;;;;;4192612;28;20037;-72
2021/12/26 05:33:18;;;;;;;4.00;3.10;;;28.20;84.50;;;;;;4163410;28;20439;-71
2021/12/26 05:35:26;;;;;;;8.00;3.33;;;28.40;84.30;;;;;;4168861;28;20049;-71
2021/12/26 05:37:30;;;;;;;8.43;3.35;;;28.40;83.80;;;;;;4165952;28;20049;-71
2021/12/26 05:39:38;;;;;;;5.30;3.20;;;28.40;83.50;;;;;;4169663;28;20055;-70
2021/12/26 05:41:42;;;;;;;6.13;2.80;;;28.40;82.90;;;;;;4198381;28;20469;-71
2021/12/26 05:44:00;;;;;;;7.88;3.15;;;28.40;82.90;;;;;;4173270;28;20131;-71
2021/12/26 05:46:04;;;;;;;6.80;2.80;;;28.50;82.70;;;;;;4206008;28;20067;-71
2021/12/26 05:48:09;;;;;;;4.63;2.58;;;28.60;82.30;;;;;;4206342;28;20040;-70
2021/12/26 05:50:16;;;;;;;7.90;2.50;;;28.60;82.10;;;;;;4171994;28;20469;-71
2021/12/26 05:52:21;;;;;;;3.17;2.40;;;28.60;82.10;;;;;;4205704;28;20051;-71
2021/12/26 05:54:29;;;;;;;8.00;2.40;;;28.70;81.90;;;;;;4202711;28;20067;-70
2021/12/26 05:56:34;;;;;;;5.05;2.40;;;28.70;81.70;;;;;;4173417;28;20053;-71
2021/12/26 05:58:39;;;;;;;4.93;2.58;;;28.70;81.20;;;;;;4206181;28;20606;-70
2021/12/26 06:00:44;;;;;;;3.63;2.45;;;28.70;81.40;;;;;;4205996;28;20567;-71
2021/12/26 06:02:50;;;;;;;14.80;3.35;;;28.80;81.50;;;;;;4198281;28;20059;-69
2021/12/26 06:04:55;;;;;;;7.40;3.13;;;28.90;82.50;;;;;;4176026;28;20488;-70
2021/12/26 06:06:59;;;;;;;3.88;2.70;;;29.00;81.10;;;;;;4173830;28;20147;-70
2021/12/26 06:09:04;;;;;;;7.88;2.67;;;28.90;80.90;;;;;;4174002;28;20045;-70
2021/12/26 06:11:10;;;;;;;3.47;2.38;;;29.00;81.10;;;;;;4172763;28;20523;-70
2021/12/26 06:13:14;;;;;;;4.80;2.30;;;29.00;81.20;;;;;;4172603;28;20048;-71
2021/12/26 06:15:19;;;;;;;3.70;2.20;;;29.00;81.00;;;;;;4173979;28;20053;-72
2021/12/26 06:17:23;;;;;;;4.20;2.17;;;28.90;81.10;;;;;;4172016;28;20155;-72
2021/12/26 06:19:40;;;;;;;5.28;2.65;;;29.00;81.20;;;;;;4173192;28;20061;-71
2021/12/26 06:21:56;;;;;;;11.73;6.43;;;29.10;80.40;;;;;;4171845;28;20463;-71
2021/12/26 06:24:13;;;;;;;5.03;2.60;;;29.20;80.30;;;;;;4170697;28;20091;-71
2021/12/26 06:26:31;;;;;;;8.40;2.55;;;29.30;79.80;;;;;;4173294;28;20415;-71
2021/12/26 06:28:43;;;;;;;4.75;2.42;;;29.40;79.80;;;;;;4169905;28;20045;-71
2021/12/26 06:31:07;;;;;;;4.85;2.10;;;29.30;79.60;;;;;;4174168;28;20416;-71
2021/12/26 06:33:31;;;;;;;5.28;2.47;;;29.20;79.50;;;;;;4174200;28;20045;-71
2021/12/26 06:35:49;;;;;;;2.85;2.03;;;29.10;80.10;;;;;;4171955;28;20133;-71
2021/12/26 06:38:06;;;;;;;6.88;2.53;;;29.00;80.10;;;;;;4170809;28;20044;-71
2021/12/26 06:40:22;;;;;;;5.60;2.50;;;29.00;79.90;;;;;;4173480;28;20427;-71
2021/12/26 06:42:43;;;;;;;3.47;2.25;;;29.00;79.70;;;;;;4174058;28;20407;-71
2021/12/26 06:44:59;;;;;;;4.53;2.45;;;29.00;79.40;;;;;;4174629;28;20128;-72
2021/12/26 06:47:16;;;;;;;4.07;2.33;;;29.00;79.30;;;;;;4175078;28;20037;-72
2021/12/26 06:49:25;;;;;;;5.40;2.83;;;29.00;79.70;;;;;;4195127;28;20037;-71
2021/12/26 06:51:30;;;;;;;6.68;4.25;;;29.00;80.00;;;;;;4173925;28;20059;-71
2021/12/26 06:53:34;;;;;;;6.32;4.13;;;29.00;79.80;;;;;;4173561;28;20045;-72
2021/12/26 06:55:39;;;;;;;5.80;2.90;;;29.00;80.10;;;;;;4172901;28;20040;-72
2021/12/26 06:57:46;;;;;;;5.15;3.15;;;29.00;79.80;;;;;;4174657;28;20184;-72
2021/12/26 06:59:50;;;;;;;9.15;4.95;;;29.00;80.30;;;;;;4172952;28;20045;-71
2021/12/26 07:01:57;;;;;;;10.27;3.60;;;29.00;80.70;;;;;;4172935;28;20496;-70
2021/12/26 07:04:20;;;;;;;6.82;2.47;;;29.00;80.30;;;;;;4172774;28;20136;-71
2021/12/26 07:06:25;;;;;;;4.47;2.30;;;29.00;80.40;;;;;;4198594;28;20047;-71
2021/12/26 07:08:35;;;;;;;6.88;2.60;;;28.90;80.10;;;;;;4171223;28;20165;-72
2021/12/26 07:10:40;;;;;;;6.60;3.50;;;28.90;80.20;;;;;;4174460;28;20057;-72
2021/12/26 07:12:45;;;;;;;6.03;3.17;;;28.90;80.30;;;;;;4173511;28;20077;-71
2021/12/26 07:15:02;;;;;;;4.60;3.08;;;28.90;80.10;;;;;;4177117;28;20337;-71
2021/12/26 07:17:11;;;;;;;8.32;3.38;;;28.90;79.50;;;;;;4181023;28;20049;-71
2021/12/26 07:19:20;;;;;;;8.68;3.53;;;28.90;80.00;;;;;;4199435;28;20044;-71
2021/12/26 07:21:31;;;;;;;7.55;3.75;;;29.00;80.10;;;;;;4200436;28;20103;-71
2021/12/26 07:23:44;;;;;;;5.82;3.17;;;29.10;80.50;;;;;;4175430;28;20111;-71
2021/12/26 07:25:52;;;;;;;6.40;2.75;;;29.10;80.20;;;;;;4170485;28;20376;-71
2021/12/26 07:27:58;;;;;;;3.83;2.78;;;29.10;80.40;;;;;;4198919;28;20087;-72
2021/12/26 07:30:15;;;;;;;3.92;2.40;;;29.10;80.40;;;;;;4177050;28;20044;-71
2021/12/26 07:32:20;;;;;;;6.20;2.88;;;29.00;80.10;;;;;;4199546;28;20082;-71
2021/12/26 07:34:24;;;;;;;5.30;2.90;;;29.10;80.50;;;;;;4176156;28;20033;-71
2021/12/26 07:36:29;;;;;;;5.47;2.90;;;29.00;80.10;;;;;;4171609;28;20045;-71
2021/12/26 07:38:54;;;;;;;6.00;2.85;;;29.00;79.70;;;;;;4175746;28;20469;-70
2021/12/26 07:41:04;;;;;;;5.72;3.00;;;29.00;79.80;;;;;;4196972;28;20431;-71
2021/12/26 07:43:09;;;;;;;9.95;3.20;;;29.00;80.10;;;;;;4175335;28;20412;-71
2021/12/26 07:45:26;;;;;;;5.22;3.35;;;29.10;80.30;;;;;;4176992;28;20094;-71
2021/12/26 07:47:35;;;;;;;4.70;3.40;;;29.10;78.80;;;;;;4200095;28;20094;-71
2021/12/26 07:49:40;;;;;;;8.55;4.07;;;29.00;78.70;;;;;;4174770;28;20218;-71
2021/12/26 07:51:58;;;;;;;5.53;3.80;;;29.10;78.90;;;;;;4172959;28;20128;-72
2021/12/26 07:54:16;;;;;;;6.63;3.50;;;29.10;78.90;;;;;;4175833;28;20036;-72
2021/12/26 07:56:32;;;;;;;5.30;2.80;;;29.20;79.30;;;;;;4172691;28;20120;-71
2021/12/26 07:58:49;;;;;;;3.65;2.53;;;29.30;79.30;;;;;;4172884;28;20144;-71
2021/12/26 08:01:06;;;;;;;6.22;3.88;;;29.30;79.30;;;;;;4175986;28;20155;-71
2021/12/26 08:03:28;;;;;;;6.32;4.70;;;29.30;79.10;;;;;;4175483;28;20499;-71
2021/12/26 08:05:54;;;;;;;8.20;5.30;;;29.30;79.40;;;;;;4175342;28;20473;-72
2021/12/26 08:08:17;;;;;;;10.23;5.90;;;29.30;78.40;;;;;;4200295;28;20481;-70
2021/12/26 08:10:23;;;;;;;8.70;6.15;;;29.20;78.60;;;;;;4175139;28;20037;-70
2021/12/26 08:12:27;;;;;;;11.38;6.00;;;29.10;79.50;;;;;;4175339;28;20476;-70
2021/12/26 08:14:32;;;;;;;7.90;5.03;;;29.10;79.50;;;;;;4175708;28;20123;-69
2021/12/26 08:16:38;;;;;;;13.55;6.47;;;29.20;79.10;;;;;;4179487;28;20041;-72
2021/12/26 08:18:43;;;;;;;6.22;4.13;;;29.20;79.20;;;;;;4177008;28;20087;-72
2021/12/26 08:20:48;;;;;;;6.38;4.22;;;29.20;79.40;;;;;;4176701;28;20163;-72
2021/12/26 08:22:53;;;;;;;7.10;3.70;;;29.20;79.60;;;;;;4175470;28;20048;-72
2021/12/26 08:24:57;;;;;;;9.75;4.20;;;29.20;78.40;;;;;;4176552;28;20491;-72
2021/12/26 08:27:01;;;;;;;8.50;4.70;;;29.20;79.20;;;;;;4176300;28;20454;-72
2021/12/26 08:29:05;;;;;;;7.43;4.05;;;29.20;78.90;;;;;;4175877;28;20033;-71
2021/12/26 08:31:10;;;;;;;7.80;4.28;;;29.20;79.10;;;;;;4172627;28;20579;-71
2021/12/26 08:33:15;;;;;;;5.05;4.07;;;29.30;78.70;;;;;;4169582;28;20053;-71
2021/12/26 08:35:19;;;;;;;9.90;4.43;;;29.40;78.40;;;;;;4172588;28;20486;-71
2021/12/26 08:37:24;;;;;;;8.45;4.35;;;29.50;78.00;;;;;;4175598;28;20049;-71
2021/12/26 08:39:31;;;;;;;10.68;3.47;;;29.60;78.10;;;;;;4176450;28;20517;-71
2021/12/26 08:41:36;;;;;;;8.80;3.80;;;29.50;78.50;;;;;;4174507;28;20045;-72
2021/12/26 08:43:43;;;;;;;4.47;3.00;;;29.50;78.70;;;;;;4173732;28;20864;-72
2021/12/26 08:45:48;;;;;;;6.43;3.15;;;29.40;78.40;;;;;;4173461;28;20160;-72
2021/12/26 08:47:55;;;;;;;6.88;2.70;;;29.40;78.70;;;;;;4172430;28;20106;-71
2021/12/26 08:49:59;;;;;;;5.93;2.97;;;29.30;78.70;;;;;;4174821;28;20060;-71
2021/12/26 08:52:06;;;;;;;11.18;3.45;;;29.30;78.60;;;;;;4176230;28;20115;-71
2021/12/26 08:54:11;;;;;;;4.50;2.67;;;29.30;78.90;;;;;;4176031;28;20515;-71
2021/12/26 08:56:16;;;;;;;8.00;3.10;;;29.30;79.10;;;;;;4174207;28;20480;-71
2021/12/26 08:58:20;;;;;;;5.85;3.15;;;29.30;79.10;;;;;;4176634;28;20377;-71
2021/12/26 09:00:24;;;;;;;7.05;3.42;;;29.20;79.30;;;;;;4175849;28;20044;-71
2021/12/26 09:02:29;;;;;;;7.30;3.33;;;29.20;79.30;;;;;;4176282;28;20119;-71
2021/12/26 09:04:34;;;;;;;7.40;3.50;;;29.20;78.50;;;;;;4175603;28;20132;-72
2021/12/26 09:06:39;;;;;;;8.02;3.13;;;29.20;79.50;;;;;;4174378;28;20127;-73
2021/12/26 09:08:45;;;;;;;5.72;3.25;;;29.20;78.70;;;;;;4174634;28;20103;-72
2021/12/26 09:10:50;;;;;;;5.55;3.17;;;29.20;78.70;;;;;;4164384;28;20243;-72
2021/12/26 09:12:54;;;;;;;6.63;3.90;;;29.20;78.40;;;;;;4169756;28;20045;-72
2021/12/26 09:14:59;;;;;;;9.93;4.15;;;29.20;78.30;;;;;;4171535;28;20041;-72
2021/12/26 09:17:03;;;;;;;7.43;3.95;;;29.30;78.30;;;;;;4177427;28;20041;-71
2021/12/26 09:19:08;;;;;;;5.82;3.92;;;29.30;78.10;;;;;;4175416;28;20075;-70
2021/12/26 09:21:12;;;;;;;6.72;4.43;;;29.30;78.30;;;;;;4175623;28;20519;-69
2021/12/26 09:23:17;;;;;;;15.20;4.82;;;29.20;78.50;;;;;;4176103;28;20056;-71
2021/12/26 09:25:21;;;;;;;9.38;4.75;;;29.20;78.60;;;;;;4175762;28;20086;-70
2021/12/26 09:27:27;;;;;;;7.45;4.85;;;29.30;78.70;;;;;;4175954;28;20055;-69
2021/12/26 09:29:31;;;;;;;9.43;4.78;;;29.30;78.40;;;;;;4176241;28;20045;-70
2021/12/26 09:31:35;;;;;;;8.57;4.68;;;29.30;78.90;;;;;;4174985;28;20151;-69
2021/12/26 09:33:40;;;;;;;10.00;4.50;;;29.20;78.00;;;;;;4175947;28;20061;-71
2021/12/26 09:35:44;;;;;;;7.88;5.13;;;29.10;79.00;;;;;;4173964;28;20148;-71
2021/12/26 09:37:49;;;;;;;8.57;4.95;;;29.10;79.80;;;;;;4175790;28;20053;-71
2021/12/26 09:39:55;;;;;;;11.75;5.70;;;29.00;79.60;;;;;;4175542;28;20049;-71
2021/12/26 09:41:59;;;;;;;10.13;5.40;;;29.00;79.70;;;;;;4175468;28;20055;-71
2021/12/26 09:44:04;;;;;;;17.02;5.07;;;29.00;79.60;;;;;;4173245;28;20155;-71
2021/12/26 09:46:09;;;;;;;7.72;4.20;;;29.00;79.10;;;;;;4175302;28;20124;-71
2021/12/26 09:48:13;;;;;;;5.22;3.22;;;29.00;79.70;;;;;;4174328;28;20173;-71
2021/12/26 09:50:19;;;;;;;8.65;4.70;;;28.90;79.80;;;;;;4175503;28;20661;-70
2021/12/26 09:52:24;;;;;;;10.07;4.35;;;29.00;80.00;;;;;;4174678;28;20049;-70
2021/12/26 09:54:28;;;;;;;8.55;4.40;;;29.10;79.80;;;;;;4175278;28;20044;-70
2021/12/26 09:56:33;;;;;;;7.13;5.05;;;29.10;80.10;;;;;;4175575;28;20615;-70
2021/12/26 09:58:52;;;;;;;11.65;5.13;;;29.10;79.80;;;;;;4174257;28;20554;-70
2021/12/26 10:00:56;;;;;;;14.02;5.43;;;29.10;79.50;;;;;;4174589;28;20055;-71
2021/12/26 10:03:30;;;;;;;12.38;6.20;;;29.00;79.80;;;;;;4175356;28;20095;-71
2021/12/26 10:06:11;;;;;;;13.77;6.82;;;28.90;80.00;;;;;;4174073;28;20533;-72
2021/12/26 10:08:16;;;;;;;12.57;5.93;;;28.90;79.20;;;;;;4175639;28;20411;-71
2021/12/26 10:10:21;;;;;;;8.02;5.78;;;28.90;79.50;;;;;;4175239;28;20041;-69
2021/12/26 10:12:26;;;;;;;14.02;6.32;;;28.80;80.20;;;;;;4174361;28;20048;-71
2021/12/26 10:14:33;;;;;;;10.02;6.38;;;28.80;80.20;;;;;;4175264;28;20060;-71
2021/12/26 10:16:47;;;;;;;9.00;5.88;;;28.80;80.20;;;;;;4174451;28;20055;-70
2021/12/26 10:18:53;;;;;;;11.20;4.68;;;28.80;80.20;;;;;;4175376;28;20052;-71
2021/12/26 10:20:58;;;;;;;8.82;5.20;;;28.70;80.30;;;;;;4174611;28;20607;-71
2021/12/26 10:23:26;;;;;;;11.95;5.78;;;28.70;80.10;;;;;;4175628;28;20114;-71
2021/12/26 10:25:36;;;;;;;13.77;5.93;;;28.60;80.10;;;;;;4175021;28;20057;-71
2021/12/26 10:27:41;;;;;;;8.60;5.88;;;28.70;80.20;;;;;;4174858;28;20057;-71
2021/12/26 10:29:48;;;;;;;9.10;6.20;;;28.70;80.30;;;;;;4174346;28;20279;-71
2021/12/26 10:32:08;;;;;;;11.48;5.45;;;28.70;79.90;;;;;;4173763;28;20072;-70
2021/12/26 10:34:24;;;;;;;8.18;5.20;;;28.60;80.30;;;;;;4175362;28;20055;-71
2021/12/26 10:36:30;;;;;;;17.58;6.53;;;28.60;80.40;;;;;;4173429;28;20114;-71
2021/12/26 10:38:34;;;;;;;8.95;6.28;;;28.60;80.60;;;;;;4172275;28;20495;-71
2021/12/26 10:40:39;;;;;;;14.75;7.05;;;28.50;80.60;;;;;;4199947;28;20048;-72
2021/12/26 10:42:55;;;;;;;9.93;6.57;;;28.60;80.60;;;;;;4170883;28;20095;-70
2021/12/26 10:45:08;;;;;;;17.55;6.35;;;28.60;80.50;;;;;;4170273;28;20052;-72
2021/12/26 10:47:16;;;;;;;11.38;5.80;;;28.50;80.60;;;;;;4172960;28;20508;-71
2021/12/26 10:49:41;;;;;;;11.60;6.80;;;28.50;80.40;;;;;;4174477;28;20067;-72
2021/12/26 10:51:45;;;;;;;12.60;5.50;;;28.50;80.40;;;;;;4176111;28;20674;-72
2021/12/26 10:54:16;;;;;;;10.30;4.85;;;28.50;80.40;;;;;;4175943;28;20495;-73
2021/12/26 10:56:21;;;;;;;13.52;5.22;;;28.50;80.80;;;;;;4175608;28;20526;-70
2021/12/26 10:58:27;;;;;;;13.82;5.68;;;28.40;81.00;;;;;;4175667;28;20049;-73
2021/12/26 11:00:36;;;;;;;11.02;5.43;;;28.50;81.40;;;;;;4175418;28;20068;-72
2021/12/26 11:02:45;;;;;;;14.50;8.02;;;28.40;81.60;;;;;;4175468;28;20427;-72
2021/12/26 11:05:03;;;;;;;17.70;8.88;;;28.40;81.60;;;;;;4177156;28;20045;-71
2021/12/26 11:07:11;;;;;;;46.45;27.25;;;28.40;81.80;;;;;;4175182;28;20146;-72